sensor_id;sensor_type;location;lat;lon;timestamp;pressure;altitude;pressure_sealevel;temperature;humidity
3122;BME280;1571;52.524;14.104;2023-10-08T00:01:37;101362.31;;;10.58;100.00
3122;BME280;1571;52.524;14.104;2023-10-08T00:04:09;101369.59;;;10.54;100.00
3122;BME280;1571;52.524;14.104;2023-10-08T00:06:40;101387.66;;;10.48;100.00
3122;BME280;1571;52.524;14.104;2023-10-08T00:09:09;101386.63;;;10.50;100.00
3122;BME280;1571;52.524;14.104;2023-10-08T00:11:38;101384.13;;;10.47;100.00
3122;BME280;1571;52.524;14.104;2023-10-08T00:14:08;101382.25;;;10.49;100.00
3122;BME280;1571;52.524;14.104;2023-10-08T00:16:38;101395.19;;;10.55;100.00
3122;BME280;1571;52.524;14.104;2023-10-08T00:19:07;101389.28;;;10.50;100.00
3122;BME280;1571;52.524;14.104;2023-10-08T00:21:42;101384.28;;;10.61;100.00
3122;BME280;1571;52.524;14.104;2023-10-08T00:24:12;101388.09;;;10.56;100.00
3122;BME280;1571;52.524;14.104;2023-10-08T00:26:40;101365.38;;;10.50;100.00
3122;BME280;1571;52.524;14.104;2023-10-08T00:29:09;101359.91;;;10.53;100.00
3122;BME280;1571;52.524;14.104;2023-10-08T00:31:45;101366.16;;;10.52;100.00
3122;BME280;1571;52.524;14.104;2023-10-08T00:34:15;101388.50;;;10.48;100.00
3122;BME280;1571;52.524;14.104;2023-10-08T00:36:46;101400.91;;;10.48;100.00
3122;BME280;1571;52.524;14.104;2023-10-08T00:39:16;101393.81;;;10.48;100.00
3122;BME280;1571;52.524;14.104;2023-10-08T00:41:51;101401.28;;;10.57;100.00
3122;BME280;1571;52.524;14.104;2023-10-08T00:44:25;101413.34;;;10.47;100.00
3122;BME280;1571;52.524;14.104;2023-10-08T00:46:58;101416.91;;;10.46;100.00
3122;BME280;1571;52.524;14.104;2023-10-08T00:49:28;101423.00;;;10.48;100.00
3122;BME280;1571;52.524;14.104;2023-10-08T00:52:16;101427.53;;;10.46;100.00
3122;BME280;1571;52.524;14.104;2023-10-08T00:54:58;101434.88;;;10.41;100.00
3122;BME280;1571;52.524;14.104;2023-10-08T00:57:36;101429.28;;;10.47;100.00
3122;BME280;1571;52.524;14.104;2023-10-08T01:00:07;101440.88;;;10.45;100.00
3122;BME280;1571;52.524;14.104;2023-10-08T01:02:42;101435.44;;;10.48;100.00
3122;BME280;1571;52.524;14.104;2023-10-08T01:05:14;101443.63;;;10.43;100.00
3122;BME280;1571;52.524;14.104;2023-10-08T01:07:47;101445.50;;;10.41;100.00
3122;BME280;1571;52.524;14.104;2023-10-08T01:10:18;101453.28;;;10.44;100.00
3122;BME280;1571;52.524;14.104;2023-10-08T01:12:48;101465.72;;;10.44;100.00
3122;BME280;1571;52.524;14.104;2023-10-08T01:15:31;101454.38;;;10.40;100.00
3122;BME280;1571;52.524;14.104;2023-10-08T01:18:04;101434.03;;;10.40;100.00
3122;BME280;1571;52.524;14.104;2023-10-08T01:20:33;101441.59;;;10.48;100.00
3122;BME280;1571;52.524;14.104;2023-10-08T01:23:07;101428.31;;;10.48;100.00
3122;BME280;1571;52.524;14.104;2023-10-08T01:25:41;101438.44;;;10.40;100.00
3122;BME280;1571;52.524;14.104;2023-10-08T01:28:10;101439.88;;;10.47;100.00
3122;BME280;1571;52.524;14.104;2023-10-08T01:30:42;101445.19;;;10.47;100.00
3122;BME280;1571;52.524;14.104;2023-10-08T01:33:14;101429.50;;;10.43;100.00
3122;BME280;1571;52.524;14.104;2023-10-08T01:35:45;101429.50;;;10.43;100.00
3122;BME280;1571;52.524;14.104;2023-10-08T01:38:17;101441.59;;;10.48;100.00
3122;BME280;1571;52.524;14.104;2023-10-08T01:40:51;101436.44;;;10.45;100.00
3122;BME280;1571;52.524;14.104;2023-10-08T01:43:19;101448.69;;;10.48;100.00
3122;BME280;1571;52.524;14.104;2023-10-08T01:45:48;101462.81;;;10.48;100.00
3122;BME280;1571;52.524;14.104;2023-10-08T01:48:19;101468.31;;;10.45;100.00
3122;BME280;1571;52.524;14.104;2023-10-08T01:50:55;101474.28;;;10.49;100.00
3122;BME280;1571;52.524;14.104;2023-10-08T01:53:27;101480.63;;;10.46;100.00
3122;BME280;1571;52.524;14.104;2023-10-08T01:55:56;101480.78;;;10.43;100.00
3122;BME280;1571;52.524;14.104;2023-10-08T01:58:25;101477.66;;;10.52;100.00
3122;BME280;1571;52.524;14.104;2023-10-08T02:00:54;101495.53;;;10.49;100.00
3122;BME280;1571;52.524;14.104;2023-10-08T02:03:26;101511.56;;;10.47;100.00
3122;BME280;1571;52.524;14.104;2023-10-08T02:05:55;101511.56;;;10.47;100.00
3122;BME280;1571;52.524;14.104;2023-10-08T02:08:28;101512.47;;;10.46;100.00
3122;BME280;1571;52.524;14.104;2023-10-08T02:10:58;101530.16;;;10.47;100.00
3122;BME280;1571;52.524;14.104;2023-10-08T02:13:27;101533.34;;;10.54;100.00
3122;BME280;1571;52.524;14.104;2023-10-08T02:15:55;101512.34;;;10.49;100.00
3122;BME280;1571;52.524;14.104;2023-10-08T02:18:25;101517.50;;;10.52;100.00
3122;BME280;1571;52.524;14.104;2023-10-08T02:20:54;101508.91;;;10.47;100.00
3122;BME280;1571;52.524;14.104;2023-10-08T02:23:22;101519.66;;;10.44;100.00
3122;BME280;1571;52.524;14.104;2023-10-08T02:25:52;101518.19;;;10.56;100.00
3122;BME280;1571;52.524;14.104;2023-10-08T02:28:22;101537.16;;;10.48;100.00
3122;BME280;1571;52.524;14.104;2023-10-08T02:30:51;101554.94;;;10.46;100.00
3122;BME280;1571;52.524;14.104;2023-10-08T02:33:20;101552.22;;;10.48;100.00
3122;BME280;1571;52.524;14.104;2023-10-08T02:35:48;101565.44;;;10.49;100.00
3122;BME280;1571;52.524;14.104;2023-10-08T02:38:19;101555.50;;;10.53;100.00
3122;BME280;1571;52.524;14.104;2023-10-08T02:40:48;101561.84;;;10.50;100.00
3122;BME280;1571;52.524;14.104;2023-10-08T02:43:19;101575.75;;;10.55;100.00
3122;BME280;1571;52.524;14.104;2023-10-08T02:45:47;101588.53;;;10.47;100.00
3122;BME280;1571;52.524;14.104;2023-10-08T02:48:17;101581.28;;;10.51;100.00
3122;BME280;1571;52.524;14.104;2023-10-08T02:50:48;101569.41;;;10.40;100.00
3122;BME280;1571;52.524;14.104;2023-10-08T02:53:16;101563.31;;;10.38;100.00
3122;BME280;1571;52.524;14.104;2023-10-08T02:55:48;101545.06;;;10.50;100.00
3122;BME280;1571;52.524;14.104;2023-10-08T02:58:18;101552.97;;;10.32;100.00
3122;BME280;1571;52.524;14.104;2023-10-08T03:00:48;101543.31;;;10.49;100.00
3122;BME280;1571;52.524;14.104;2023-10-08T03:03:17;101541.00;;;10.43;100.00
3122;BME280;1571;52.524;14.104;2023-10-08T03:05:47;101529.97;;;10.50;100.00
3122;BME280;1571;52.524;14.104;2023-10-08T03:08:18;101539.09;;;10.26;100.00
3122;BME280;1571;52.524;14.104;2023-10-08T03:10:49;101552.97;;;10.32;100.00
3122;BME280;1571;52.524;14.104;2023-10-08T03:13:24;101560.50;;;10.41;100.00
3122;BME280;1571;52.524;14.104;2023-10-08T03:15:53;101557.56;;;10.29;100.00
3122;BME280;1571;52.524;14.104;2023-10-08T03:18:36;101539.31;;;10.40;100.00
3122;BME280;1571;52.524;14.104;2023-10-08T03:21:10;101561.13;;;10.47;100.00
3122;BME280;1571;52.524;14.104;2023-10-08T03:23:52;101563.06;;;10.43;100.00
3122;BME280;1571;52.524;14.104;2023-10-08T03:26:25;101554.38;;;10.39;100.00
3122;BME280;1571;52.524;14.104;2023-10-08T03:29:04;101555.13;;;10.43;100.00
3122;BME280;1571;52.524;14.104;2023-10-08T03:31:36;101566.44;;;10.28;100.00
3122;BME280;1571;52.524;14.104;2023-10-08T03:34:19;101566.03;;;10.37;100.00
3122;BME280;1571;52.524;14.104;2023-10-08T03:36:48;101558.91;;;10.37;100.00
3122;BME280;1571;52.524;14.104;2023-10-08T03:39:17;101554.09;;;10.27;100.00
3122;BME280;1571;52.524;14.104;2023-10-08T03:41:46;101567.88;;;10.16;100.00
3122;BME280;1571;52.524;14.104;2023-10-08T03:44:27;101600.81;;;10.12;100.00
3122;BME280;1571;52.524;14.104;2023-10-08T03:46:57;101603.44;;;10.12;100.00
3122;BME280;1571;52.524;14.104;2023-10-08T03:49:37;101605.63;;;10.23;100.00
3122;BME280;1571;52.524;14.104;2023-10-08T03:52:12;101593.81;;;10.28;100.00
3122;BME280;1571;52.524;14.104;2023-10-08T03:54:41;101590.81;;;10.17;100.00
3122;BME280;1571;52.524;14.104;2023-10-08T03:57:15;101602.72;;;10.08;100.00
3122;BME280;1571;52.524;14.104;2023-10-08T03:59:53;101617.22;;;10.20;100.00
3122;BME280;1571;52.524;14.104;2023-10-08T04:02:26;101628.53;;;10.24;100.00
3122;BME280;1571;52.524;14.104;2023-10-08T04:05:08;101637.25;;;10.27;100.00
3122;BME280;1571;52.524;14.104;2023-10-08T04:07:46;101646.22;;;10.25;100.00
3122;BME280;1571;52.524;14.104;2023-10-08T04:10:44;101657.88;;;10.20;100.00
3122;BME280;1571;52.524;14.104;2023-10-08T04:13:32;101645.16;;;10.08;100.00
3122;BME280;1571;52.524;14.104;2023-10-08T04:16:01;101634.06;;;10.00;100.00
3122;BME280;1571;52.524;14.104;2023-10-08T04:18:31;101639.59;;;9.95;100.00
3122;BME280;1571;52.524;14.104;2023-10-08T04:21:07;101635.22;;;10.13;100.00
3122;BME280;1571;52.524;14.104;2023-10-08T04:23:40;101651.69;;;10.01;100.00
3122;BME280;1571;52.524;14.104;2023-10-08T04:26:11;101640.88;;;9.87;100.00
3122;BME280;1571;52.524;14.104;2023-10-08T04:28:39;101648.44;;;9.75;100.00
3122;BME280;1571;52.524;14.104;2023-10-08T04:31:09;101666.31;;;9.70;100.00
3122;BME280;1571;52.524;14.104;2023-10-08T04:33:43;101657.03;;;9.80;100.00
3122;BME280;1571;52.524;14.104;2023-10-08T04:36:12;101664.34;;;9.75;100.00
3122;BME280;1571;52.524;14.104;2023-10-08T04:38:47;101670.06;;;9.66;100.00
3122;BME280;1571;52.524;14.104;2023-10-08T04:41:16;101667.63;;;9.62;100.00
3122;BME280;1571;52.524;14.104;2023-10-08T04:43:46;101681.72;;;9.62;100.00
3122;BME280;1571;52.524;14.104;2023-10-08T04:46:18;101690.53;;;9.63;100.00
3122;BME280;1571;52.524;14.104;2023-10-08T04:49:06;101702.72;;;9.46;100.00
3122;BME280;1571;52.524;14.104;2023-10-08T04:51:44;101712.88;;;9.57;100.00
3122;BME280;1571;52.524;14.104;2023-10-08T04:54:16;101705.09;;;9.52;100.00
3122;BME280;1571;52.524;14.104;2023-10-08T04:56:44;101712.72;;;9.40;100.00
3122;BME280;1571;52.524;14.104;2023-10-08T04:59:16;101715.47;;;9.36;100.00
3122;BME280;1571;52.524;14.104;2023-10-08T05:01:50;101706.22;;;9.47;100.00
3122;BME280;1571;52.524;14.104;2023-10-08T05:04:39;101710.06;;;9.40;100.00
3122;BME280;1571;52.524;14.104;2023-10-08T05:07:23;101698.28;;;9.47;100.00
3122;BME280;1571;52.524;14.104;2023-10-08T05:10:06;101691.78;;;9.54;100.00
3122;BME280;1571;52.524;14.104;2023-10-08T05:12:59;101696.28;;;9.31;100.00
3122;BME280;1571;52.524;14.104;2023-10-08T05:15:41;101710.03;;;9.19;100.00
3122;BME280;1571;52.524;14.104;2023-10-08T05:18:18;101728.84;;;9.13;100.00
3122;BME280;1571;52.524;14.104;2023-10-08T05:21:05;101738.75;;;9.08;100.00
3122;BME280;1571;52.524;14.104;2023-10-08T05:23:52;101750.41;;;9.04;100.00
3122;BME280;1571;52.524;14.104;2023-10-08T05:26:42;101741.88;;;8.95;100.00
3122;BME280;1571;52.524;14.104;2023-10-08T05:29:11;101740.41;;;8.88;100.00
3122;BME280;1571;52.524;14.104;2023-10-08T05:32:19;101750.09;;;8.89;100.00
3122;BME280;1571;52.524;14.104;2023-10-08T05:35:08;101743.19;;;8.85;100.00
3122;BME280;1571;52.524;14.104;2023-10-08T05:37:54;101750.31;;;8.83;100.00
3122;BME280;1571;52.524;14.104;2023-10-08T05:40:40;101756.44;;;8.85;100.00
3122;BME280;1571;52.524;14.104;2023-10-08T05:43:28;101748.84;;;8.52;100.00
3122;BME280;1571;52.524;14.104;2023-10-08T05:46:16;101766.22;;;8.60;100.00
3122;BME280;1571;52.524;14.104;2023-10-08T05:49:07;101770.25;;;8.70;100.00
3122;BME280;1571;52.524;14.104;2023-10-08T05:52:07;101776.44;;;8.69;100.00
3122;BME280;1571;52.524;14.104;2023-10-08T05:54:55;101774.59;;;8.71;100.00
3122;BME280;1571;52.524;14.104;2023-10-08T05:57:43;101777.75;;;8.59;100.00
3122;BME280;1571;52.524;14.104;2023-10-08T06:00:19;101784.44;;;8.44;100.00
3122;BME280;1571;52.524;14.104;2023-10-08T06:03:05;101805.09;;;8.58;100.00
3122;BME280;1571;52.524;14.104;2023-10-08T06:06:00;101821.69;;;8.86;100.00
3122;BME280;1571;52.524;14.104;2023-10-08T06:08:46;101816.41;;;8.86;100.00
3122;BME280;1571;52.524;14.104;2023-10-08T06:11:19;101807.41;;;8.90;100.00
3122;BME280;1571;52.524;14.104;2023-10-08T06:14:05;101814.59;;;9.10;100.00
3122;BME280;1571;52.524;14.104;2023-10-08T06:16:41;101818.06;;;9.34;100.00
3122;BME280;1571;52.524;14.104;2023-10-08T06:19:10;101822.81;;;9.48;100.00
3122;BME280;1571;52.524;14.104;2023-10-08T06:21:41;101810.97;;;9.57;100.00
3122;BME280;1571;52.524;14.104;2023-10-08T06:24:11;101816.13;;;9.60;100.00
3122;BME280;1571;52.524;14.104;2023-10-08T06:26:44;101813.34;;;9.63;100.00
3122;BME280;1571;52.524;14.104;2023-10-08T06:29:16;101819.63;;;9.83;100.00
3122;BME280;1571;52.524;14.104;2023-10-08T06:31:54;101824.88;;;9.84;100.00
3122;BME280;1571;52.524;14.104;2023-10-08T06:34:23;101826.31;;;9.71;100.00
3122;BME280;1571;52.524;14.104;2023-10-08T06:36:57;101842.25;;;9.91;100.00
3122;BME280;1571;52.524;14.104;2023-10-08T06:39:26;101854.03;;;9.84;100.00
3122;BME280;1571;52.524;14.104;2023-10-08T06:42:00;101852.84;;;9.91;100.00
3122;BME280;1571;52.524;14.104;2023-10-08T06:44:34;101844.09;;;10.10;100.00
3122;BME280;1571;52.524;14.104;2023-10-08T06:47:04;101851.94;;;10.33;100.00
3122;BME280;1571;52.524;14.104;2023-10-08T06:49:36;101847.38;;;10.37;100.00
3122;BME280;1571;52.524;14.104;2023-10-08T06:52:06;101846.56;;;10.55;100.00
3122;BME280;1571;52.524;14.104;2023-10-08T06:54:39;101842.84;;;10.18;100.00
3122;BME280;1571;52.524;14.104;2023-10-08T06:57:08;101844.84;;;10.54;100.00
3122;BME280;1571;52.524;14.104;2023-10-08T06:59:41;101837.81;;;10.53;100.00
3122;BME280;1571;52.524;14.104;2023-10-08T07:02:10;101827.06;;;10.56;100.00
3122;BME280;1571;52.524;14.104;2023-10-08T07:04:39;101832.00;;;10.45;100.00
3122;BME280;1571;52.524;14.104;2023-10-08T07:07:08;101839.78;;;10.69;100.00
3122;BME280;1571;52.524;14.104;2023-10-08T07:09:38;101825.78;;;10.84;100.00
3122;BME280;1571;52.524;14.104;2023-10-08T07:12:07;101830.53;;;10.96;100.00
3122;BME280;1571;52.524;14.104;2023-10-08T07:14:41;101823.28;;;11.00;100.00
3122;BME280;1571;52.524;14.104;2023-10-08T07:17:10;101834.09;;;11.14;100.00
3122;BME280;1571;52.524;14.104;2023-10-08T07:19:47;101837.50;;;11.18;100.00
3122;BME280;1571;52.524;14.104;2023-10-08T07:22:18;101830.50;;;11.34;100.00
3122;BME280;1571;52.524;14.104;2023-10-08T07:24:52;101833.38;;;10.92;100.00
3122;BME280;1571;52.524;14.104;2023-10-08T07:27:21;101836.13;;;11.28;100.00
3122;BME280;1571;52.524;14.104;2023-10-08T07:29:52;101827.81;;;11.17;100.00
3122;BME280;1571;52.524;14.104;2023-10-08T07:32:24;101827.22;;;11.29;100.00
3122;BME280;1571;52.524;14.104;2023-10-08T07:34:53;101839.44;;;10.95;100.00
3122;BME280;1571;52.524;14.104;2023-10-08T07:37:42;101841.44;;;11.28;100.00
3122;BME280;1571;52.524;14.104;2023-10-08T07:40:13;101858.22;;;11.48;100.00
3122;BME280;1571;52.524;14.104;2023-10-08T07:42:42;101865.84;;;11.36;99.30
3122;BME280;1571;52.524;14.104;2023-10-08T07:45:11;101870.44;;;11.52;98.75
3122;BME280;1571;52.524;14.104;2023-10-08T07:47:44;101861.66;;;11.50;98.37
3122;BME280;1571;52.524;14.104;2023-10-08T07:50:12;101870.69;;;10.90;96.67
3122;BME280;1571;52.524;14.104;2023-10-08T07:52:40;101875.50;;;11.20;97.96
3122;BME280;1571;52.524;14.104;2023-10-08T07:55:11;101873.59;;;11.60;95.13
3122;BME280;1571;52.524;14.104;2023-10-08T07:57:46;101880.19;;;11.70;93.36
3122;BME280;1571;52.524;14.104;2023-10-08T08:00:15;101882.91;;;11.87;93.14
3122;BME280;1571;52.524;14.104;2023-10-08T08:02:51;101888.78;;;11.94;94.78
3122;BME280;1571;52.524;14.104;2023-10-08T08:05:22;101895.69;;;11.79;92.37
3122;BME280;1571;52.524;14.104;2023-10-08T08:07:52;101889.03;;;11.90;90.92
3122;BME280;1571;52.524;14.104;2023-10-08T08:10:23;101897.88;;;12.07;89.83
3122;BME280;1571;52.524;14.104;2023-10-08T08:12:54;101907.06;;;11.83;90.40
3122;BME280;1571;52.524;14.104;2023-10-08T08:15:24;101906.69;;;11.91;89.61
3122;BME280;1571;52.524;14.104;2023-10-08T08:17:54;101905.78;;;11.92;87.81
3122;BME280;1571;52.524;14.104;2023-10-08T08:20:22;101910.72;;;12.17;87.65
3122;BME280;1571;52.524;14.104;2023-10-08T08:23:02;101915.75;;;12.23;83.89
3122;BME280;1571;52.524;14.104;2023-10-08T08:25:38;101910.09;;;12.29;83.00
3122;BME280;1571;52.524;14.104;2023-10-08T08:28:14;101927.84;;;12.11;84.26
3122;BME280;1571;52.524;14.104;2023-10-08T08:30:47;101932.09;;;12.33;87.21
3122;BME280;1571;52.524;14.104;2023-10-08T08:33:19;101925.06;;;12.32;83.81
3122;BME280;1571;52.524;14.104;2023-10-08T08:36:00;101935.63;;;12.33;85.48
3122;BME280;1571;52.524;14.104;2023-10-08T08:38:32;101942.41;;;12.04;82.03
3122;BME280;1571;52.524;14.104;2023-10-08T08:41:02;101935.06;;;12.26;76.26
3122;BME280;1571;52.524;14.104;2023-10-08T08:43:36;101920.38;;;12.37;75.55
3122;BME280;1571;52.524;14.104;2023-10-08T08:46:05;101937.88;;;12.58;77.84
3122;BME280;1571;52.524;14.104;2023-10-08T08:48:39;101941.19;;;12.63;77.24
3122;BME280;1571;52.524;14.104;2023-10-08T08:51:08;101946.91;;;12.56;77.59
3122;BME280;1571;52.524;14.104;2023-10-08T08:53:37;101950.41;;;12.74;73.84
3122;BME280;1571;52.524;14.104;2023-10-08T08:56:06;101960.22;;;12.56;74.78
3122;BME280;1571;52.524;14.104;2023-10-08T08:58:37;101950.09;;;12.62;71.17
3122;BME280;1571;52.524;14.104;2023-10-08T09:01:12;101966.09;;;12.45;71.75
3122;BME280;1571;52.524;14.104;2023-10-08T09:03:41;101972.06;;;12.50;71.86
3122;BME280;1571;52.524;14.104;2023-10-08T09:06:09;101978.66;;;12.43;73.47
3122;BME280;1571;52.524;14.104;2023-10-08T09:08:38;101976.44;;;12.86;70.75
3122;BME280;1571;52.524;14.104;2023-10-08T09:11:13;101989.84;;;12.67;74.90
3122;BME280;1571;52.524;14.104;2023-10-08T09:13:43;101976.31;;;12.54;72.12
3122;BME280;1571;52.524;14.104;2023-10-08T09:16:13;101988.00;;;13.02;71.69
3122;BME280;1571;52.524;14.104;2023-10-08T09:18:42;101975.25;;;13.25;68.46
3122;BME280;1571;52.524;14.104;2023-10-08T09:21:14;101990.63;;;13.20;68.38
3122;BME280;1571;52.524;14.104;2023-10-08T09:23:49;102006.06;;;12.80;69.17
3122;BME280;1571;52.524;14.104;2023-10-08T09:26:22;102007.16;;;12.93;68.94
3122;BME280;1571;52.524;14.104;2023-10-08T09:28:52;102003.69;;;12.91;68.68
3122;BME280;1571;52.524;14.104;2023-10-08T09:31:23;102014.03;;;12.97;70.12
3122;BME280;1571;52.524;14.104;2023-10-08T09:33:55;102010.91;;;12.89;68.80
3122;BME280;1571;52.524;14.104;2023-10-08T09:36:24;102018.28;;;12.84;67.99
3122;BME280;1571;52.524;14.104;2023-10-08T09:39:02;102023.84;;;13.47;68.58
3122;BME280;1571;52.524;14.104;2023-10-08T09:41:33;102026.69;;;13.27;68.68
3122;BME280;1571;52.524;14.104;2023-10-08T09:44:05;102015.56;;;13.36;63.95
3122;BME280;1571;52.524;14.104;2023-10-08T09:46:40;102002.84;;;13.41;62.17
3122;BME280;1571;52.524;14.104;2023-10-08T09:49:13;102016.34;;;13.21;61.69
3122;BME280;1571;52.524;14.104;2023-10-08T09:51:43;102021.22;;;13.12;64.01
3122;BME280;1571;52.524;14.104;2023-10-08T09:54:20;102027.78;;;13.40;61.02
3122;BME280;1571;52.524;14.104;2023-10-08T09:56:49;102023.84;;;13.47;61.79
3122;BME280;1571;52.524;14.104;2023-10-08T09:59:21;102021.78;;;13.52;60.51
3122;BME280;1571;52.524;14.104;2023-10-08T10:01:50;102019.25;;;13.16;59.32
3122;BME280;1571;52.524;14.104;2023-10-08T10:04:23;102006.44;;;12.89;57.71
3122;BME280;1571;52.524;14.104;2023-10-08T10:06:52;102013.81;;;13.35;59.79
3122;BME280;1571;52.524;14.104;2023-10-08T10:09:22;102022.78;;;13.34;59.29
3122;BME280;1571;52.524;14.104;2023-10-08T10:11:53;102018.41;;;13.16;59.52
3122;BME280;1571;52.524;14.104;2023-10-08T10:14:24;102025.69;;;13.63;60.83
3122;BME280;1571;52.524;14.104;2023-10-08T10:17:08;102031.59;;;13.52;60.68
3122;BME280;1571;52.524;14.104;2023-10-08T10:19:50;102032.47;;;13.68;63.09
3122;BME280;1571;52.524;14.104;2023-10-08T10:22:27;102014.94;;;13.96;58.08
3122;BME280;1571;52.524;14.104;2023-10-08T10:24:57;102023.69;;;13.82;56.28
3122;BME280;1571;52.524;14.104;2023-10-08T10:27:27;102023.63;;;13.68;56.93
3122;BME280;1571;52.524;14.104;2023-10-08T10:30:03;102027.78;;;13.40;56.86
3122;BME280;1571;52.524;14.104;2023-10-08T10:32:37;102021.66;;;13.71;57.77
3122;BME280;1571;52.524;14.104;2023-10-08T10:35:05;102034.28;;;13.52;59.12
3122;BME280;1571;52.524;14.104;2023-10-08T10:37:39;102028.34;;;13.63;56.74
3122;BME280;1571;52.524;14.104;2023-10-08T10:40:10;102018.88;;;13.73;55.80
3122;BME280;1571;52.524;14.104;2023-10-08T10:42:39;102031.41;;;13.55;61.75
3122;BME280;1571;52.524;14.104;2023-10-08T10:45:15;102027.00;;;13.71;58.42
3122;BME280;1571;52.524;14.104;2023-10-08T10:48:03;102019.75;;;13.73;56.81
3122;BME280;1571;52.524;14.104;2023-10-08T10:50:50;102024.59;;;13.83;55.45
3122;BME280;1571;52.524;14.104;2023-10-08T10:53:33;102008.91;;;13.92;54.10
3122;BME280;1571;52.524;14.104;2023-10-08T10:56:12;102021.78;;;14.16;57.35
3122;BME280;1571;52.524;14.104;2023-10-08T10:58:47;102015.94;;;14.25;54.94
3122;BME280;1571;52.524;14.104;2023-10-08T11:01:26;102021.25;;;14.57;56.62
3122;BME280;1571;52.524;14.104;2023-10-08T11:03:57;102024.00;;;14.40;57.78
3122;BME280;1571;52.524;14.104;2023-10-08T11:06:26;102010.56;;;14.57;54.15
3122;BME280;1571;52.524;14.104;2023-10-08T11:08:54;102006.47;;;14.50;53.14
3122;BME280;1571;52.524;14.104;2023-10-08T11:11:26;102006.25;;;14.38;54.32
3122;BME280;1571;52.524;14.104;2023-10-08T11:13:56;102009.81;;;14.39;52.38
3122;BME280;1571;52.524;14.104;2023-10-08T11:16:29;101994.97;;;14.33;50.06
3122;BME280;1571;52.524;14.104;2023-10-08T11:18:59;102028.00;;;14.32;52.38
3122;BME280;1571;52.524;14.104;2023-10-08T11:21:48;102012.59;;;14.52;52.73
3122;BME280;1571;52.524;14.104;2023-10-08T11:24:27;102008.50;;;14.46;49.56
3122;BME280;1571;52.524;14.104;2023-10-08T11:26:56;102000.84;;;14.24;50.39
3122;BME280;1571;52.524;14.104;2023-10-08T11:29:37;102005.31;;;14.40;49.61
3122;BME280;1571;52.524;14.104;2023-10-08T11:32:07;101993.69;;;14.25;49.21
3122;BME280;1571;52.524;14.104;2023-10-08T11:34:39;101983.97;;;14.54;49.73
3122;BME280;1571;52.524;14.104;2023-10-08T11:37:07;101984.25;;;14.19;50.79
3122;BME280;1571;52.524;14.104;2023-10-08T11:39:47;101992.78;;;14.56;51.75
3122;BME280;1571;52.524;14.104;2023-10-08T11:42:16;101985.97;;;14.81;50.83
3122;BME280;1571;52.524;14.104;2023-10-08T11:45:08;101989.84;;;15.05;49.03
3122;BME280;1571;52.524;14.104;2023-10-08T11:47:54;101987.19;;;15.34;48.00
3122;BME280;1571;52.524;14.104;2023-10-08T11:50:30;101996.00;;;14.77;48.32
3122;BME280;1571;52.524;14.104;2023-10-08T11:52:59;101987.59;;;14.69;49.25
3122;BME280;1571;52.524;14.104;2023-10-08T11:55:33;101997.59;;;14.65;50.35
3122;BME280;1571;52.524;14.104;2023-10-08T11:58:04;102004.69;;;14.50;51.18
3122;BME280;1571;52.524;14.104;2023-10-08T12:00:38;101998.06;;;14.57;50.55
3122;BME280;1571;52.524;14.104;2023-10-08T12:03:14;102004.69;;;14.66;51.50
3122;BME280;1571;52.524;14.104;2023-10-08T12:05:47;102016.84;;;14.86;50.58
3122;BME280;1571;52.524;14.104;2023-10-08T12:08:18;102015.25;;;14.22;50.44
3122;BME280;1571;52.524;14.104;2023-10-08T12:10:48;102018.72;;;14.08;50.28
3122;BME280;1571;52.524;14.104;2023-10-08T12:13:22;102022.44;;;13.89;51.33
3122;BME280;1571;52.524;14.104;2023-10-08T12:15:53;102021.41;;;13.76;52.23
3122;BME280;1571;52.524;14.104;2023-10-08T12:18:34;102032.06;;;13.76;54.60
3122;BME280;1571;52.524;14.104;2023-10-08T12:21:08;102023.28;;;13.90;51.95
3122;BME280;1571;52.524;14.104;2023-10-08T12:23:38;102020.44;;;13.77;51.78
3122;BME280;1571;52.524;14.104;2023-10-08T12:26:08;102036.44;;;13.61;52.64
3122;BME280;1571;52.524;14.104;2023-10-08T12:28:36;102033.97;;;13.41;54.24
3122;BME280;1571;52.524;14.104;2023-10-08T12:31:05;102048.03;;;13.44;55.35
3122;BME280;1571;52.524;14.104;2023-10-08T12:33:35;102040.66;;;13.32;55.30
3122;BME280;1571;52.524;14.104;2023-10-08T12:36:04;102046.06;;;13.64;55.60
3122;BME280;1571;52.524;14.104;2023-10-08T12:38:40;102043.84;;;13.56;55.25
3122;BME280;1571;52.524;14.104;2023-10-08T12:41:09;102030.47;;;13.40;55.49
3122;BME280;1571;52.524;14.104;2023-10-08T12:43:41;102023.34;;;13.57;55.68
3122;BME280;1571;52.524;14.104;2023-10-08T12:46:13;102019.25;;;13.67;55.47
3122;BME280;1571;52.524;14.104;2023-10-08T12:48:53;102018.22;;;13.85;55.60
3122;BME280;1571;52.524;14.104;2023-10-08T12:51:24;102016.56;;;13.67;55.67
3122;BME280;1571;52.524;14.104;2023-10-08T12:53:54;102006.81;;;13.66;55.72
3122;BME280;1571;52.524;14.104;2023-10-08T12:56:31;102013.59;;;13.22;55.03
3122;BME280;1571;52.524;14.104;2023-10-08T12:59:06;102012.75;;;13.22;56.37
3122;BME280;1571;52.524;14.104;2023-10-08T13:01:35;102013.81;;;13.02;57.71
3122;BME280;1571;52.524;14.104;2023-10-08T13:04:09;102008.84;;;13.29;56.97
3122;BME280;1571;52.524;14.104;2023-10-08T13:06:43;102007.94;;;13.62;56.89
3122;BME280;1571;52.524;14.104;2023-10-08T13:09:13;102002.00;;;13.57;56.63
3122;BME280;1571;52.524;14.104;2023-10-08T13:11:41;102005.00;;;13.17;56.82
3122;BME280;1571;52.524;14.104;2023-10-08T13:14:10;101997.50;;;12.90;55.72
3122;BME280;1571;52.524;14.104;2023-10-08T13:16:40;101997.09;;;12.81;56.02
3122;BME280;1571;52.524;14.104;2023-10-08T13:19:09;101999.94;;;12.60;56.00
3122;BME280;1571;52.524;14.104;2023-10-08T13:21:38;102007.22;;;12.74;57.78
3122;BME280;1571;52.524;14.104;2023-10-08T13:24:06;102012.25;;;12.80;57.08
3122;BME280;1571;52.524;14.104;2023-10-08T13:26:37;101994.44;;;12.81;56.89
3122;BME280;1571;52.524;14.104;2023-10-08T13:29:06;101995.69;;;13.08;56.65